createdAt,value
2022-09-06T00:00:30.982Z,2.65
2022-09-06T00:02:59.652Z,2.88
2022-09-06T00:05:28.630Z,2.50
2022-09-06T00:07:58.994Z,2.80
2022-09-06T00:10:27.341Z,2.90
2022-09-06T00:12:55.826Z,2.65
2022-09-06T00:15:24.052Z,2.65
2022-09-06T00:17:53.600Z,2.83
2022-09-06T00:20:21.769Z,2.97
2022-09-06T00:22:50.115Z,3.22
2022-09-06T00:25:18.422Z,3.15
2022-09-06T00:27:46.677Z,2.75
2022-09-06T00:30:14.985Z,2.92
2022-09-06T00:32:43.148Z,3.85
2022-09-06T00:35:12.699Z,2.60
2022-09-06T00:37:40.868Z,3.08
2022-09-06T00:40:10.210Z,2.97
2022-09-06T00:42:38.637Z,3.25
2022-09-06T00:45:08.885Z,2.67
2022-09-06T00:47:39.808Z,2.95
2022-09-06T00:50:09.098Z,3.22
2022-09-06T00:52:39.970Z,3.00
2022-09-06T00:55:08.994Z,3.80
2022-09-06T00:57:37.663Z,3.65
2022-09-06T01:00:09.789Z,3.72
2022-09-06T01:02:38.192Z,3.63
2022-09-06T01:05:07.599Z,3.60
2022-09-06T01:07:48.667Z,3.70
2022-09-06T01:10:33.225Z,3.90
2022-09-06T01:13:11.179Z,3.70
2022-09-06T01:15:51.070Z,2.85
2022-09-06T01:18:30.439Z,3.53
2022-09-06T01:21:09.115Z,3.22
2022-09-06T01:24:14.786Z,3.30
2022-09-06T01:27:15.314Z,2.88
2022-09-06T01:29:49.341Z,3.85
2022-09-06T01:32:24.879Z,3.75
2022-09-06T01:34:59.611Z,3.42
2022-09-06T01:37:27.830Z,3.35
2022-09-06T01:39:56.068Z,3.30
2022-09-06T01:42:27.315Z,3.10
2022-09-06T01:45:01.657Z,3.75
2022-09-06T01:47:40.789Z,3.28
2022-09-06T01:50:27.310Z,3.45
2022-09-06T01:53:05.812Z,3.90
2022-09-06T01:55:40.463Z,3.72
2022-09-06T01:58:40.313Z,3.20
2022-09-06T02:01:17.005Z,3.00
2022-09-06T02:03:53.954Z,2.60
2022-09-06T02:06:28.122Z,2.85
2022-09-06T02:09:02.044Z,2.70
2022-09-06T02:11:36.772Z,2.75
2022-09-06T02:14:10.308Z,2.70
2022-09-06T02:16:43.133Z,2.95
2022-09-06T02:19:16.362Z,3.00
2022-09-06T02:21:47.898Z,2.70
2022-09-06T02:24:20.886Z,3.17
2022-09-06T02:26:49.554Z,2.78
2022-09-06T02:29:18.598Z,3.03
2022-09-06T02:31:51.745Z,3.53
2022-09-06T02:34:21.601Z,3.30
2022-09-06T02:36:50.347Z,3.03
2022-09-06T02:39:18.552Z,2.92
2022-09-06T02:41:48.992Z,2.80
2022-09-06T02:44:17.277Z,2.88
2022-09-06T02:46:46.794Z,3.00
2022-09-06T02:49:14.958Z,2.80
2022-09-06T02:51:43.175Z,2.78
2022-09-06T02:54:11.516Z,2.83
2022-09-06T02:56:39.686Z,2.72
2022-09-06T02:59:07.983Z,3.22
2022-09-06T03:01:36.277Z,2.38
2022-09-06T03:04:05.911Z,3.42
2022-09-06T03:06:34.566Z,3.05
2022-09-06T03:09:02.811Z,2.83
2022-09-06T03:11:31.009Z,3.30
2022-09-06T03:13:59.207Z,3.03
2022-09-06T03:16:27.471Z,3.05
2022-09-06T03:18:55.952Z,3.03
2022-09-06T03:21:25.583Z,3.10
2022-09-06T03:23:54.748Z,2.83
2022-09-06T03:26:23.014Z,2.85
2022-09-06T03:28:51.295Z,3.15
2022-09-06T03:31:19.573Z,3.25
2022-09-06T03:33:47.922Z,3.72
2022-09-06T03:36:17.061Z,2.53
2022-09-06T03:38:46.890Z,2.53
2022-09-06T03:41:15.032Z,2.97
2022-09-06T03:43:43.221Z,3.20
2022-09-06T03:46:11.402Z,3.17
2022-09-06T03:48:39.922Z,3.10
2022-09-06T03:51:08.142Z,3.30
2022-09-06T03:53:36.382Z,2.97
2022-09-06T03:56:06.358Z,3.40
2022-09-06T03:58:34.753Z,3.25
2022-09-06T04:01:04.351Z,3.42
2022-09-06T04:03:32.970Z,3.47
2022-09-06T04:06:01.292Z,3.55
2022-09-06T04:08:30.230Z,3.05
2022-09-06T04:10:59.783Z,3.38
2022-09-06T04:13:30.496Z,3.30
2022-09-06T04:15:59.084Z,2.80
2022-09-06T04:18:28.165Z,3.53
2022-09-06T04:20:57.434Z,3.67
2022-09-06T04:23:27.355Z,3.05
2022-09-06T04:25:57.448Z,3.33
2022-09-06T04:28:26.932Z,3.38
2022-09-06T04:31:00.914Z,4.07
2022-09-06T04:33:35.008Z,3.22
2022-09-06T04:36:07.482Z,3.72
2022-09-06T04:38:37.832Z,2.63
2022-09-06T04:41:07.298Z,3.08
2022-09-06T04:43:35.543Z,3.47
2022-09-06T04:46:07.006Z,2.90
2022-09-06T04:48:35.227Z,2.70
2022-09-06T04:51:03.485Z,2.85
2022-09-06T04:53:31.704Z,3.20
2022-09-06T04:56:00.212Z,3.35
2022-09-06T04:58:29.270Z,3.05
2022-09-06T05:00:57.658Z,3.28
2022-09-06T05:03:27.263Z,3.13
2022-09-06T05:06:06.894Z,2.85
2022-09-06T05:08:37.249Z,3.30
2022-09-06T05:11:05.814Z,2.90
2022-09-06T05:13:34.149Z,3.03
2022-09-06T05:16:03.120Z,3.10
2022-09-06T05:18:33.044Z,3.25
2022-09-06T05:21:01.532Z,3.53
2022-09-06T05:23:30.011Z,2.83
2022-09-06T05:25:58.285Z,3.60
2022-09-06T05:28:26.665Z,3.30
2022-09-06T05:30:55.089Z,3.10
2022-09-06T05:33:25.211Z,3.85
2022-09-06T05:35:54.792Z,3.38
2022-09-06T05:38:22.951Z,3.38
2022-09-06T05:40:51.186Z,3.38
2022-09-06T05:43:19.373Z,3.00
2022-09-06T05:45:47.599Z,3.70
2022-09-06T05:48:15.793Z,3.60
2022-09-06T05:50:43.938Z,3.72
2022-09-06T05:53:13.743Z,3.42
2022-09-06T05:55:43.111Z,3.25
2022-09-06T05:58:11.455Z,3.70
2022-09-06T06:00:40.004Z,3.38
2022-09-06T06:03:08.294Z,3.20
2022-09-06T06:05:36.443Z,3.25
2022-09-06T06:08:04.651Z,3.47
2022-09-06T06:10:38.437Z,3.70
2022-09-06T06:13:06.905Z,3.50
2022-09-06T06:15:35.066Z,3.47
2022-09-06T06:18:03.276Z,3.08
2022-09-06T06:20:31.489Z,3.63
2022-09-06T06:22:59.678Z,3.75
2022-09-06T06:25:27.849Z,3.05
2022-09-06T06:27:57.398Z,2.80
2022-09-06T06:30:25.534Z,3.13
2022-09-06T06:32:53.707Z,3.38
2022-09-06T06:35:22.117Z,3.38
2022-09-06T06:37:50.344Z,3.15
2022-09-06T06:40:18.536Z,3.70
2022-09-06T06:42:46.784Z,3.13
2022-09-06T06:45:16.596Z,3.63
2022-09-06T06:47:44.801Z,3.25
2022-09-06T06:50:13.004Z,3.30
2022-09-06T06:52:41.833Z,3.10
2022-09-06T06:55:10.885Z,3.03
2022-09-06T06:57:39.175Z,3.75
2022-09-06T07:00:08.575Z,3.53
2022-09-06T07:02:38.172Z,3.33
2022-09-06T07:07:55.321Z,3.80
2022-09-06T07:10:38.799Z,3.70
2022-09-06T07:13:07.072Z,3.42
2022-09-06T07:15:35.247Z,3.60
2022-09-06T07:18:04.910Z,4.40
2022-09-06T07:26:14.488Z,3.70
2022-09-06T07:28:43.138Z,3.92
2022-09-06T07:34:01.627Z,3.70
2022-09-06T07:36:29.878Z,4.07
2022-09-06T07:38:58.080Z,3.75
2022-09-06T07:41:26.504Z,3.55
2022-09-06T07:43:55.731Z,3.20
2022-09-06T07:46:24.086Z,3.85
2022-09-06T07:48:52.477Z,3.17
2022-09-06T07:51:22.970Z,3.00
2022-09-06T07:54:06.938Z,2.90
2022-09-06T07:56:41.480Z,2.35
2022-09-06T07:59:09.710Z,2.38
2022-09-06T08:01:39.154Z,2.00
2022-09-06T08:04:09.667Z,1.98
2022-09-06T08:09:29.507Z,1.77
2022-09-06T08:11:57.834Z,1.27
2022-09-06T08:14:26.193Z,0.98
2022-09-06T08:16:54.473Z,1.00
2022-09-06T08:19:22.762Z,0.90
2022-09-06T08:21:56.001Z,0.90
2022-09-06T08:24:24.494Z,0.77
2022-09-06T08:26:52.731Z,0.70
2022-09-06T08:29:21.012Z,0.68
2022-09-06T08:31:49.277Z,0.80
2022-09-06T08:34:17.557Z,0.70
2022-09-06T08:36:46.328Z,0.70
2022-09-06T08:39:16.783Z,0.43
2022-09-06T08:41:50.485Z,0.60
2022-09-06T08:47:12.798Z,0.60
2022-09-06T08:49:43.547Z,0.73
2022-09-06T08:52:26.659Z,0.70
2022-09-06T08:55:03.898Z,0.70
2022-09-06T08:57:45.638Z,0.73
2022-09-06T09:00:15.136Z,0.70
2022-09-06T09:02:46.241Z,1.10
2022-09-06T09:05:27.011Z,0.80
2022-09-06T09:08:04.537Z,0.70
2022-09-06T09:10:42.519Z,0.73
2022-09-06T09:13:20.443Z,0.90
2022-09-06T09:15:48.722Z,0.80
2022-09-06T09:18:21.819Z,0.77
2022-09-06T09:20:50.320Z,0.50
2022-09-06T09:23:18.682Z,0.60
2022-09-06T09:25:49.620Z,0.93
2022-09-06T09:28:20.894Z,0.80
2022-09-06T09:30:51.972Z,0.70
2022-09-06T09:33:26.775Z,0.60
2022-09-06T09:35:55.940Z,0.65
2022-09-06T09:38:27.454Z,1.05
2022-09-06T09:40:59.437Z,0.55
2022-09-06T09:43:31.460Z,0.40
2022-09-06T09:46:15.274Z,0.47
2022-09-06T09:48:49.724Z,0.30
2022-09-06T09:51:27.405Z,0.35
2022-09-06T09:53:57.466Z,0.40
2022-09-06T09:56:38.027Z,0.40
2022-09-06T09:59:20.392Z,0.40
2022-09-06T10:01:48.848Z,0.60
2022-09-06T10:07:13.081Z,0.82
2022-09-06T10:09:43.846Z,0.68
2022-09-06T10:12:19.076Z,0.40
2022-09-06T10:14:48.938Z,0.43
2022-09-06T10:17:23.046Z,0.50
2022-09-06T10:19:51.387Z,1.02
2022-09-06T10:22:26.629Z,0.60
2022-09-06T10:25:21.406Z,0.70
2022-09-06T10:28:12.123Z,0.57
2022-09-06T10:30:45.980Z,0.57
2022-09-06T10:33:24.195Z,0.80
2022-09-06T10:35:53.945Z,0.68
2022-09-06T10:38:38.473Z,0.60
2022-09-06T10:41:25.111Z,0.50
2022-09-06T10:44:04.456Z,0.82
2022-09-06T10:46:36.623Z,0.60
2022-09-06T10:49:05.797Z,0.82
2022-09-06T10:51:39.632Z,0.68
2022-09-06T10:54:11.087Z,1.15
2022-09-06T10:56:44.966Z,0.70
2022-09-06T10:59:38.614Z,0.70
2022-09-06T11:02:22.230Z,0.63
2022-09-06T11:10:35.483Z,0.88
2022-09-06T11:13:07.469Z,0.45
2022-09-06T11:15:48.360Z,0.93
2022-09-06T11:18:21.714Z,0.65
2022-09-06T11:21:03.954Z,0.77
2022-09-06T11:23:48.249Z,0.77
2022-09-06T11:26:34.450Z,0.80
2022-09-06T11:29:07.052Z,0.70
2022-09-06T11:34:41.212Z,1.27
2022-09-06T11:37:24.734Z,0.70
2022-09-06T11:43:18.905Z,0.90
2022-09-06T11:45:50.198Z,1.17
2022-09-06T11:48:37.426Z,0.95
2022-09-06T11:51:10.966Z,1.00
2022-09-06T11:54:10.345Z,0.57
2022-09-06T11:56:43.387Z,1.10
2022-09-06T11:59:28.339Z,0.63
2022-09-06T12:02:04.495Z,0.90
2022-09-06T12:05:10.411Z,0.95
2022-09-06T12:08:00.496Z,0.70
2022-09-06T12:10:52.425Z,1.23
2022-09-06T12:13:48.621Z,1.10
2022-09-06T12:16:18.729Z,0.93
2022-09-06T12:19:03.783Z,1.15
2022-09-06T12:21:38.180Z,1.10
2022-09-06T12:24:07.757Z,1.00
2022-09-06T12:26:55.557Z,1.02
2022-09-06T12:29:26.402Z,0.90
2022-09-06T12:31:57.600Z,1.02
2022-09-06T12:34:29.501Z,0.90
2022-09-06T12:37:00.262Z,0.80
2022-09-06T12:39:28.801Z,1.10
2022-09-06T12:42:01.930Z,1.00
2022-09-06T12:44:33.588Z,1.30
2022-09-06T12:47:07.585Z,1.45
2022-09-06T12:49:35.787Z,1.10
2022-09-06T12:52:12.157Z,0.98
2022-09-06T12:54:46.665Z,1.13
2022-09-06T12:57:20.116Z,1.08
2022-09-06T12:59:50.503Z,1.05
2022-09-06T13:02:21.556Z,1.25
2022-09-06T13:04:53.181Z,1.30
2022-09-06T13:07:23.973Z,1.25
2022-09-06T13:09:55.134Z,1.58
2022-09-06T13:12:27.766Z,1.33
2022-09-06T13:14:57.286Z,1.52
2022-09-06T13:17:27.358Z,1.50
2022-09-06T13:19:55.762Z,1.30
2022-09-06T13:22:41.746Z,1.30
2022-09-06T13:25:20.347Z,1.05
2022-09-06T13:27:51.492Z,1.70
2022-09-06T13:30:35.128Z,1.42
2022-09-06T13:33:04.285Z,1.70
2022-09-06T13:35:34.545Z,1.40
2022-09-06T13:38:32.997Z,1.40
2022-09-06T13:41:17.161Z,1.10
2022-09-06T13:43:48.564Z,1.00
2022-09-06T13:46:16.695Z,1.30
2022-09-06T13:48:45.232Z,1.67
2022-09-06T13:51:13.710Z,1.30
2022-09-06T13:53:41.998Z,1.17
2022-09-06T13:56:11.953Z,1.30
2022-09-06T13:58:40.004Z,1.20
2022-09-06T14:01:11.161Z,1.10
2022-09-06T14:03:42.594Z,1.42
2022-09-06T14:06:11.012Z,1.23
2022-09-06T14:09:03.300Z,1.45
2022-09-06T14:11:27.626Z,1.55
2022-09-06T14:13:55.742Z,1.42
2022-09-06T14:16:25.265Z,1.95
2022-09-06T14:18:53.328Z,1.63
2022-09-06T14:21:21.530Z,1.70
2022-09-06T14:23:51.453Z,1.25
2022-09-06T14:26:20.969Z,1.60
2022-09-06T14:28:49.385Z,1.25
2022-09-06T14:31:19.726Z,1.63
2022-09-06T14:33:49.262Z,1.38
2022-09-06T14:36:19.940Z,1.38
2022-09-06T14:38:49.154Z,1.10
2022-09-06T14:41:18.900Z,1.38
2022-09-06T14:43:51.107Z,1.73
2022-09-06T14:46:21.050Z,2.08
2022-09-06T14:48:56.903Z,1.45
2022-09-06T14:51:25.035Z,1.70
2022-09-06T14:53:54.658Z,1.52
2022-09-06T14:56:23.800Z,1.52
2022-09-06T14:58:51.931Z,1.13
2022-09-06T15:01:22.557Z,1.25
2022-09-06T15:03:54.597Z,1.60
2022-09-06T15:06:24.612Z,1.45
2022-09-06T15:08:58.384Z,1.50
2022-09-06T15:11:34.249Z,1.25
2022-09-06T15:14:03.920Z,1.55
2022-09-06T15:16:32.593Z,1.15
2022-09-06T15:19:03.460Z,1.63
2022-09-06T15:21:31.833Z,1.42
2022-09-06T15:24:00.270Z,1.20
2022-09-06T15:26:28.343Z,1.38
2022-09-06T15:28:56.418Z,1.42
2022-09-06T15:31:24.619Z,1.17
2022-09-06T15:33:53.852Z,1.33
2022-09-06T15:36:23.281Z,1.30
2022-09-06T15:38:53.838Z,1.55
2022-09-06T15:41:24.299Z,1.60
2022-09-06T15:43:56.678Z,1.58
2022-09-06T15:46:43.440Z,1.40
2022-09-06T15:49:13.633Z,1.20
2022-09-06T15:51:43.686Z,1.20
2022-09-06T15:54:13.174Z,1.23
2022-09-06T15:56:41.635Z,1.30
2022-09-06T15:59:09.766Z,1.27
2022-09-06T16:01:38.559Z,1.60
2022-09-06T16:04:07.362Z,1.38
2022-09-06T16:06:37.641Z,1.30
2022-09-06T16:09:10.121Z,1.42
2022-09-06T16:11:38.652Z,1.38
2022-09-06T16:14:08.570Z,1.40
2022-09-06T16:16:36.879Z,1.38
2022-09-06T16:19:05.336Z,1.30
2022-09-06T16:21:35.369Z,1.40
2022-09-06T16:24:05.571Z,1.38
2022-09-06T16:26:37.274Z,1.27
2022-09-06T16:29:06.879Z,1.08
2022-09-06T16:31:39.763Z,1.23
2022-09-06T16:34:08.727Z,1.60
2022-09-06T16:36:36.849Z,1.50
2022-09-06T16:39:05.379Z,1.20
2022-09-06T16:41:40.290Z,1.40
2022-09-06T16:44:08.566Z,1.20
2022-09-06T16:46:36.987Z,1.40
2022-09-06T16:49:05.937Z,1.48
2022-09-06T16:51:33.968Z,1.50
2022-09-06T16:54:02.653Z,1.33
2022-09-06T16:56:34.700Z,1.52
2022-09-06T16:59:07.044Z,1.10
2022-09-06T17:01:36.343Z,1.33
2022-09-06T17:04:05.699Z,1.50
2022-09-06T17:06:38.182Z,1.13
2022-09-06T17:09:06.897Z,1.40
2022-09-06T17:11:37.164Z,1.70
2022-09-06T17:14:07.112Z,1.73
2022-09-06T17:16:53.263Z,1.98
2022-09-06T17:19:21.562Z,1.33
2022-09-06T17:21:49.681Z,1.30
2022-09-06T17:24:17.846Z,1.70
2022-09-06T17:26:46.080Z,1.52
2022-09-06T17:29:15.572Z,1.67
2022-09-06T17:31:43.794Z,1.90
2022-09-06T17:34:12.015Z,1.63
2022-09-06T17:36:40.217Z,1.75
2022-09-06T17:39:10.889Z,1.30
2022-09-06T17:41:41.037Z,1.42
2022-09-06T17:44:10.907Z,1.42
2022-09-06T17:46:51.846Z,1.50
2022-09-06T17:49:30.207Z,1.75
2022-09-06T17:51:58.428Z,1.75
2022-09-06T17:54:26.690Z,1.15
2022-09-06T17:56:55.047Z,1.70
2022-09-06T17:59:23.202Z,2.30
2022-09-06T18:01:52.811Z,1.35
2022-09-06T18:04:21.017Z,1.80
2022-09-06T18:06:49.250Z,1.92
2022-09-06T18:09:18.044Z,2.00
2022-09-06T18:11:47.447Z,2.17
2022-09-06T18:14:21.133Z,1.52
2022-09-06T18:16:51.878Z,1.52
2022-09-06T18:19:23.142Z,1.73
2022-09-06T18:21:51.847Z,1.85
2022-09-06T18:24:20.211Z,1.63
2022-09-06T18:26:49.091Z,1.50
2022-09-06T18:29:18.435Z,1.90
2022-09-06T18:31:46.831Z,2.15
2022-09-06T18:34:16.466Z,1.85
2022-09-06T18:36:46.121Z,1.98
2022-09-06T18:39:14.187Z,2.10
2022-09-06T18:42:00.612Z,1.80
2022-09-06T18:44:32.233Z,1.50
2022-09-06T18:47:02.147Z,2.30
2022-09-06T18:49:30.684Z,2.95
2022-09-06T18:52:00.529Z,2.20
2022-09-06T18:54:28.863Z,1.73
2022-09-06T18:56:56.906Z,1.75
2022-09-06T18:59:25.356Z,1.30
2022-09-06T19:01:53.582Z,1.33
2022-09-06T19:04:21.745Z,1.75
2022-09-06T19:06:50.507Z,1.27
2022-09-06T19:09:19.927Z,1.20
2022-09-06T19:11:51.497Z,1.75
2022-09-06T19:14:20.320Z,0.82
2022-09-06T19:16:50.118Z,1.38
2022-09-06T19:19:18.620Z,1.10
2022-09-06T19:21:46.685Z,1.13
2022-09-06T19:24:15.942Z,1.00
2022-09-06T19:26:46.921Z,1.50
2022-09-06T19:29:18.118Z,1.00
2022-09-06T19:31:47.323Z,0.90
2022-09-06T19:34:16.119Z,0.82
2022-09-06T19:36:45.841Z,1.35
2022-09-06T19:39:16.054Z,1.23
2022-09-06T19:41:47.320Z,1.38
2022-09-06T19:44:16.533Z,1.50
2022-09-06T19:46:46.829Z,1.20
2022-09-06T19:49:16.801Z,1.48
2022-09-06T19:51:46.326Z,1.00
2022-09-06T19:54:15.529Z,1.10
2022-09-06T19:56:45.728Z,1.40
2022-09-06T19:59:15.139Z,1.10
2022-09-06T20:01:45.606Z,1.17
2022-09-06T20:04:14.830Z,1.20
2022-09-06T20:06:43.114Z,1.30
2022-09-06T20:09:12.043Z,1.50
2022-09-06T20:11:41.871Z,1.40
2022-09-06T20:14:12.212Z,1.00
2022-09-06T20:16:42.069Z,0.95
2022-09-06T20:19:12.214Z,1.70
2022-09-06T20:21:40.332Z,1.30
2022-09-06T20:24:08.517Z,1.20
2022-09-06T20:26:36.788Z,1.30
2022-09-06T20:29:06.585Z,1.65
2022-09-06T20:31:38.429Z,1.23
2022-09-06T20:34:07.370Z,1.40
2022-09-06T20:36:35.579Z,1.38
2022-09-06T20:39:04.159Z,1.30
2022-09-06T20:41:33.684Z,1.50
2022-09-06T20:44:02.065Z,1.73
2022-09-06T20:46:32.145Z,1.17
2022-09-06T20:49:04.482Z,1.35
2022-09-06T20:51:34.348Z,1.20
2022-09-06T20:54:04.570Z,1.42
2022-09-06T20:56:34.666Z,1.88
2022-09-06T20:59:04.750Z,1.35
2022-09-06T21:01:35.022Z,1.67
2022-09-06T21:04:07.497Z,1.85
2022-09-06T21:06:37.102Z,2.10
2022-09-06T21:09:06.736Z,1.38
2022-09-06T21:11:35.118Z,1.58
2022-09-06T21:14:03.685Z,1.70
2022-09-06T21:16:32.447Z,1.70
2022-09-06T21:19:01.912Z,1.65
2022-09-06T21:21:33.180Z,1.90
2022-09-06T21:24:02.010Z,1.50
2022-09-06T21:26:30.453Z,2.00
2022-09-06T21:28:58.999Z,1.58
2022-09-06T21:31:28.672Z,1.63
2022-09-06T21:33:58.597Z,1.73
2022-09-06T21:36:29.306Z,1.90
2022-09-06T21:39:00.315Z,1.88
2022-09-06T21:41:29.295Z,1.85
2022-09-06T21:43:59.307Z,1.90
2022-09-06T21:46:32.901Z,1.60
2022-09-06T21:49:03.820Z,2.20
2022-09-06T21:51:32.826Z,1.80
2022-09-06T21:54:04.386Z,1.67
2022-09-06T21:56:33.936Z,1.60
2022-09-06T21:59:02.029Z,1.60
2022-09-06T22:01:31.869Z,1.63
2022-09-06T22:04:00.639Z,1.65
2022-09-06T22:06:31.006Z,1.50
2022-09-06T22:09:00.119Z,1.63
2022-09-06T22:11:31.705Z,1.60
2022-09-06T22:14:00.649Z,1.60
2022-09-06T22:16:30.087Z,1.40
2022-09-06T22:18:58.853Z,1.58
2022-09-06T22:21:26.990Z,1.40
2022-09-06T22:23:58.711Z,1.55
2022-09-06T22:26:30.193Z,1.50
2022-09-06T22:29:00.040Z,1.45
2022-09-06T22:31:30.285Z,1.70
2022-09-06T22:33:59.317Z,1.70
2022-09-06T22:36:28.137Z,1.60
2022-09-06T22:38:57.630Z,1.42
2022-09-06T22:41:27.010Z,1.50
2022-09-06T22:43:56.719Z,1.88
2022-09-06T22:46:25.416Z,1.60
2022-09-06T22:48:53.437Z,1.50
2022-09-06T22:51:21.643Z,1.13
2022-09-06T22:53:49.682Z,1.23
2022-09-06T22:56:17.713Z,1.73
2022-09-06T22:58:45.894Z,1.80
2022-09-06T23:01:16.795Z,1.73
2022-09-06T23:03:46.804Z,1.50
2022-09-06T23:06:15.035Z,1.20
2022-09-06T23:08:43.074Z,1.70
2022-09-06T23:11:14.213Z,1.38
2022-09-06T23:13:44.096Z,1.75
2022-09-06T23:16:14.000Z,1.45
2022-09-06T23:18:43.905Z,1.55
2022-09-06T23:21:13.792Z,1.52
2022-09-06T23:23:42.629Z,1.50
2022-09-06T23:26:12.766Z,1.90
2022-09-06T23:28:41.217Z,1.45
2022-09-06T23:31:12.129Z,1.70
2022-09-06T23:33:41.717Z,2.30
2022-09-06T23:36:12.997Z,1.83
2022-09-06T23:38:42.732Z,2.55
2022-09-06T23:41:11.333Z,2.88
2022-09-06T23:43:39.852Z,2.28
2022-09-06T23:46:08.493Z,2.40
2022-09-06T23:48:37.115Z,2.83
2022-09-06T23:51:05.854Z,3.13
2022-09-06T23:53:35.309Z,2.75
2022-09-06T23:56:03.908Z,3.05
2022-09-06T23:58:32.273Z,2.60
